createdAt,value
2022-10-09T00:01:12.385Z,100.00
2022-10-09T00:03:41.129Z,100.00
2022-10-09T00:06:09.359Z,100.00
2022-10-09T00:08:39.390Z,100.00
2022-10-09T00:11:07.312Z,100.00
2022-10-09T00:13:34.063Z,100.00
2022-10-09T00:16:04.433Z,100.00
2022-10-09T00:18:30.942Z,100.00
2022-10-09T00:20:57.521Z,100.00
2022-10-09T00:23:24.013Z,100.00
2022-10-09T00:25:52.847Z,100.00
2022-10-09T00:28:20.567Z,100.00
2022-10-09T00:30:47.193Z,100.00
2022-10-09T00:33:14.037Z,100.00
2022-10-09T00:35:40.933Z,100.00
2022-10-09T00:38:07.969Z,100.00
2022-10-09T00:40:36.059Z,100.00
2022-10-09T00:43:03.717Z,100.00
2022-10-09T00:45:31.477Z,100.00
2022-10-09T00:48:01.650Z,100.00
2022-10-09T00:50:40.369Z,100.00
2022-10-09T00:53:08.030Z,100.00
2022-10-09T00:55:35.824Z,100.00
2022-10-09T00:58:02.518Z,100.00
2022-10-09T01:00:29.544Z,100.00
2022-10-09T01:02:56.268Z,100.00
2022-10-09T01:05:34.909Z,100.00
2022-10-09T01:08:22.214Z,100.00
2022-10-09T01:11:22.822Z,100.00
2022-10-09T01:14:00.841Z,100.00
2022-10-09T01:16:31.042Z,100.00
2022-10-09T01:19:05.421Z,100.00
2022-10-09T01:22:13.463Z,100.00
2022-10-09T01:24:45.721Z,100.00
2022-10-09T01:27:21.931Z,100.00
2022-10-09T01:29:59.159Z,100.00
2022-10-09T01:32:32.534Z,100.00
2022-10-09T01:35:00.351Z,100.00
2022-10-09T01:37:29.256Z,100.00
2022-10-09T01:39:56.554Z,100.00
2022-10-09T01:42:26.191Z,100.00
2022-10-09T01:44:52.686Z,100.00
2022-10-09T01:47:21.368Z,100.00
2022-10-09T01:50:24.964Z,100.00
2022-10-09T01:52:59.492Z,100.00
2022-10-09T01:55:38.131Z,100.00
2022-10-09T01:58:15.485Z,100.00
2022-10-09T02:01:02.774Z,100.00
2022-10-09T02:03:30.488Z,100.00
2022-10-09T02:05:58.150Z,100.00
2022-10-09T02:08:25.909Z,100.00
2022-10-09T02:10:56.383Z,100.00
2022-10-09T02:13:23.427Z,100.00
2022-10-09T02:16:00.508Z,100.00
2022-10-09T02:18:37.449Z,100.00
2022-10-09T02:21:11.217Z,100.00
2022-10-09T02:23:40.158Z,100.00
2022-10-09T02:26:07.156Z,100.00
2022-10-09T02:28:33.771Z,100.00
2022-10-09T02:31:18.785Z,100.00
2022-10-09T02:33:45.392Z,100.00
2022-10-09T02:36:11.908Z,100.00
2022-10-09T02:38:38.371Z,100.00
2022-10-09T02:41:04.947Z,100.00
2022-10-09T02:43:31.433Z,100.00
2022-10-09T02:45:58.177Z,100.00
2022-10-09T02:48:24.747Z,100.00
2022-10-09T02:50:51.213Z,100.00
2022-10-09T02:53:17.718Z,100.00
2022-10-09T02:55:44.224Z,100.00
2022-10-09T02:58:10.770Z,100.00
2022-10-09T03:00:38.325Z,100.00
2022-10-09T03:03:04.921Z,100.00
2022-10-09T03:05:31.424Z,100.00
2022-10-09T03:07:58.671Z,100.00
2022-10-09T03:10:25.158Z,100.00
2022-10-09T03:12:51.818Z,100.00
2022-10-09T03:15:18.410Z,100.00
2022-10-09T03:17:44.862Z,100.00
2022-10-09T03:20:11.385Z,100.00
2022-10-09T03:22:37.876Z,100.00
2022-10-09T03:25:04.637Z,100.00
2022-10-09T03:27:31.103Z,100.00
2022-10-09T03:29:58.703Z,100.00
2022-10-09T03:32:25.757Z,100.00
2022-10-09T03:34:52.299Z,100.00
2022-10-09T03:37:18.783Z,100.00
2022-10-09T03:39:45.228Z,100.00
2022-10-09T03:42:11.789Z,100.00
2022-10-09T03:44:38.296Z,100.00
2022-10-09T03:47:04.846Z,100.00
2022-10-09T03:49:31.335Z,100.00
2022-10-09T03:51:57.772Z,100.00
2022-10-09T03:54:24.260Z,100.00
2022-10-09T03:56:50.826Z,100.00
2022-10-09T03:59:17.281Z,100.00
2022-10-09T04:01:43.756Z,100.00
2022-10-09T04:04:10.190Z,100.00
2022-10-09T04:06:36.725Z,100.00
2022-10-09T04:09:03.276Z,100.00
2022-10-09T04:11:29.807Z,100.00
2022-10-09T04:13:56.265Z,100.00
2022-10-09T04:16:22.867Z,100.00
2022-10-09T04:18:49.364Z,100.00
2022-10-09T04:21:15.893Z,100.00
2022-10-09T04:23:42.459Z,100.00
2022-10-09T04:26:11.900Z,100.00
2022-10-09T04:28:39.041Z,100.00
2022-10-09T04:31:05.650Z,100.00
2022-10-09T04:33:32.314Z,100.00
2022-10-09T04:35:58.803Z,100.00
2022-10-09T04:38:25.770Z,100.00
2022-10-09T04:40:59.545Z,100.00
2022-10-09T04:43:26.700Z,100.00
2022-10-09T04:45:53.883Z,100.00
2022-10-09T04:48:20.627Z,100.00
2022-10-09T04:50:47.544Z,100.00
2022-10-09T04:53:14.955Z,100.00
2022-10-09T04:55:43.333Z,100.00
2022-10-09T04:58:12.105Z,100.00
2022-10-09T05:00:43.056Z,100.00
2022-10-09T05:03:10.700Z,100.00
2022-10-09T05:05:37.456Z,100.00
2022-10-09T05:08:04.065Z,100.00
2022-10-09T05:10:32.286Z,100.00
2022-10-09T05:12:59.436Z,100.00
2022-10-09T05:15:25.919Z,100.00
2022-10-09T05:17:52.414Z,100.00
2022-10-09T05:20:18.943Z,100.00
2022-10-09T05:22:47.284Z,100.00
2022-10-09T05:25:14.791Z,100.00
2022-10-09T05:27:41.337Z,100.00
2022-10-09T05:30:08.934Z,100.00
2022-10-09T05:32:35.565Z,100.00
2022-10-09T05:35:02.048Z,100.00
2022-10-09T05:37:28.575Z,100.00
2022-10-09T05:39:55.176Z,100.00
2022-10-09T05:42:21.638Z,100.00
2022-10-09T05:44:48.173Z,100.00
2022-10-09T05:47:17.857Z,100.00
2022-10-09T05:49:44.330Z,100.00
2022-10-09T05:52:10.838Z,100.00
2022-10-09T05:54:37.297Z,100.00
2022-10-09T05:57:04.950Z,100.00
2022-10-09T05:59:31.482Z,100.00
2022-10-09T06:01:59.098Z,100.00
2022-10-09T06:04:25.845Z,100.00
2022-10-09T06:06:52.807Z,100.00
2022-10-09T06:09:23.102Z,100.00
2022-10-09T06:11:50.930Z,100.00
2022-10-09T06:14:17.808Z,100.00
2022-10-09T06:16:45.605Z,100.00
2022-10-09T06:19:14.507Z,100.00
2022-10-09T06:21:41.261Z,100.00
2022-10-09T06:24:08.333Z,100.00
2022-10-09T06:26:35.053Z,100.00
2022-10-09T06:29:03.077Z,100.00
2022-10-09T06:31:32.076Z,100.00
2022-10-09T06:34:00.890Z,100.00
2022-10-09T06:36:29.905Z,100.00
2022-10-09T06:38:58.759Z,100.00
2022-10-09T06:41:26.926Z,100.00
2022-10-09T06:44:01.870Z,100.00
2022-10-09T06:46:32.748Z,100.00
2022-10-09T06:49:00.810Z,100.00
2022-10-09T06:51:29.030Z,100.00
2022-10-09T06:53:57.539Z,100.00
2022-10-09T06:56:26.092Z,100.00
2022-10-09T06:58:52.975Z,100.00
2022-10-09T07:01:24.433Z,100.00
2022-10-09T07:03:56.932Z,100.00
2022-10-09T07:06:26.200Z,100.00
2022-10-09T07:08:55.355Z,100.00
2022-10-09T07:11:33.607Z,100.00
2022-10-09T07:14:03.432Z,100.00
2022-10-09T07:16:36.256Z,100.00
2022-10-09T07:19:07.355Z,100.00
2022-10-09T07:21:35.106Z,100.00
2022-10-09T07:24:02.656Z,100.00
2022-10-09T07:26:30.903Z,100.00
2022-10-09T07:28:57.978Z,100.00
2022-10-09T07:31:24.977Z,100.00
2022-10-09T07:33:53.432Z,100.00
2022-10-09T07:36:20.460Z,100.00
2022-10-09T07:38:52.192Z,100.00
2022-10-09T07:41:19.952Z,100.00
2022-10-09T07:43:46.510Z,100.00
2022-10-09T07:46:18.478Z,100.00
2022-10-09T07:48:45.977Z,100.00
2022-10-09T07:51:23.577Z,100.00
2022-10-09T07:53:50.673Z,100.00
2022-10-09T07:56:19.636Z,100.00
2022-10-09T07:58:51.042Z,100.00
2022-10-09T08:01:20.118Z,100.00
2022-10-09T08:03:47.537Z,100.00
2022-10-09T08:06:14.305Z,100.00
2022-10-09T08:08:40.930Z,100.00
2022-10-09T08:11:12.457Z,100.00
2022-10-09T08:13:41.248Z,100.00
2022-10-09T08:16:07.927Z,100.00
2022-10-09T08:18:35.211Z,100.00
2022-10-09T08:21:05.006Z,100.00
2022-10-09T08:23:31.673Z,100.00
2022-10-09T08:25:59.059Z,100.00
2022-10-09T08:28:25.762Z,100.00
2022-10-09T08:30:52.462Z,100.00
2022-10-09T08:33:21.926Z,100.00
2022-10-09T08:35:49.844Z,100.00
2022-10-09T08:38:37.492Z,100.00
2022-10-09T08:41:06.184Z,100.00
2022-10-09T08:43:36.634Z,100.00
2022-10-09T08:46:26.037Z,100.00
2022-10-09T08:48:53.920Z,100.00
2022-10-09T08:51:27.023Z,100.00
2022-10-09T08:53:59.982Z,100.00
2022-10-09T08:56:27.337Z,100.00
2022-10-09T08:58:54.000Z,100.00
2022-10-09T09:01:29.440Z,100.00
2022-10-09T09:04:14.699Z,100.00
2022-10-09T09:07:01.521Z,100.00
2022-10-09T09:09:40.360Z,100.00
2022-10-09T09:12:27.681Z,100.00
2022-10-09T09:15:04.474Z,100.00
2022-10-09T09:17:38.062Z,100.00
2022-10-09T09:20:17.610Z,100.00
2022-10-09T09:22:49.155Z,100.00
2022-10-09T09:25:28.447Z,100.00
2022-10-09T09:28:00.408Z,100.00
2022-10-09T09:30:50.571Z,100.00
2022-10-09T09:33:29.750Z,100.00
2022-10-09T09:36:18.285Z,100.00
2022-10-09T09:39:24.959Z,100.00
2022-10-09T09:41:31.425Z,100.00
2022-10-09T09:43:57.933Z,100.00
2022-10-09T09:46:28.977Z,100.00
2022-10-09T09:48:55.648Z,100.00
2022-10-09T09:51:29.212Z,100.00
2022-10-09T09:54:25.944Z,100.00
2022-10-09T09:57:18.342Z,100.00
2022-10-09T09:59:45.378Z,100.00
2022-10-09T10:02:12.395Z,100.00
2022-10-09T10:04:49.369Z,100.00
2022-10-09T10:07:30.999Z,100.00
2022-10-09T10:10:09.383Z,100.00
2022-10-09T10:12:57.220Z,100.00
2022-10-09T10:15:29.462Z,100.00
2022-10-09T10:18:00.905Z,100.00
2022-10-09T10:20:28.932Z,100.00
2022-10-09T10:22:57.905Z,100.00
2022-10-09T10:25:32.097Z,100.00
2022-10-09T10:28:11.509Z,100.00
2022-10-09T10:30:38.909Z,100.00
2022-10-09T10:33:19.271Z,100.00
2022-10-09T10:35:49.194Z,100.00
2022-10-09T10:38:25.464Z,100.00
2022-10-09T10:41:29.402Z,100.00
2022-10-09T10:44:23.060Z,100.00
2022-10-09T10:46:58.762Z,100.00
2022-10-09T10:49:28.415Z,100.00
2022-10-09T10:52:00.965Z,100.00
2022-10-09T10:54:39.765Z,100.00
2022-10-09T10:57:24.143Z,100.00
2022-10-09T10:59:56.901Z,100.00
2022-10-09T11:02:58.407Z,100.00
2022-10-09T11:05:27.738Z,100.00
2022-10-09T11:08:00.502Z,100.00
2022-10-09T11:10:35.876Z,100.00
2022-10-09T11:13:19.806Z,100.00
2022-10-09T11:16:14.202Z,100.00
2022-10-09T11:18:43.516Z,100.00
2022-10-09T11:21:31.171Z,100.00
2022-10-09T11:24:31.809Z,100.00
2022-10-09T11:27:21.367Z,100.00
2022-10-09T11:30:09.753Z,100.00
2022-10-09T11:32:51.486Z,100.00
2022-10-09T11:35:23.106Z,100.00
2022-10-09T11:38:08.119Z,100.00
2022-10-09T11:40:42.787Z,100.00
2022-10-09T11:43:24.563Z,100.00
2022-10-09T11:46:09.630Z,100.00
2022-10-09T11:48:48.585Z,100.00
2022-10-09T11:51:28.688Z,100.00
2022-10-09T11:53:55.450Z,100.00
2022-10-09T11:56:24.546Z,100.00
2022-10-09T11:59:03.893Z,100.00
2022-10-09T12:01:39.067Z,100.00
2022-10-09T12:04:08.459Z,100.00
2022-10-09T12:06:59.204Z,100.00
2022-10-09T12:09:34.867Z,100.00
2022-10-09T12:12:07.199Z,100.00
2022-10-09T12:14:36.805Z,100.00
2022-10-09T12:17:23.583Z,100.00
2022-10-09T12:19:54.520Z,100.00
2022-10-09T12:22:30.541Z,100.00
2022-10-09T12:25:03.603Z,100.00
2022-10-09T12:27:40.346Z,100.00
2022-10-09T12:30:13.623Z,100.00
2022-10-09T12:32:55.043Z,100.00
2022-10-09T12:35:25.818Z,100.00
2022-10-09T12:37:52.505Z,100.00
2022-10-09T12:40:25.585Z,100.00
2022-10-09T12:42:53.927Z,100.00
2022-10-09T12:45:31.743Z,100.00
2022-10-09T12:48:08.078Z,100.00
2022-10-09T12:50:35.522Z,100.00
2022-10-09T12:53:06.074Z,100.00
2022-10-09T12:55:35.881Z,100.00
2022-10-09T12:58:27.561Z,100.00
2022-10-09T13:00:56.976Z,100.00
2022-10-09T13:03:35.542Z,100.00
2022-10-09T13:06:15.461Z,100.00
2022-10-09T13:08:42.249Z,100.00
2022-10-09T13:11:08.700Z,100.00
2022-10-09T13:13:35.491Z,100.00
2022-10-09T13:16:11.137Z,100.00
2022-10-09T13:18:38.337Z,100.00
2022-10-09T13:21:22.893Z,100.00
2022-10-09T13:23:49.402Z,100.00
2022-10-09T13:26:24.240Z,100.00
2022-10-09T13:28:51.391Z,100.00
2022-10-09T13:31:19.152Z,99.17
2022-10-09T13:33:47.135Z,100.00
2022-10-09T13:36:15.233Z,94.56
2022-10-09T13:38:42.132Z,93.45
2022-10-09T13:41:20.356Z,91.14
2022-10-09T13:43:47.902Z,92.76
2022-10-09T13:46:16.013Z,95.16
2022-10-09T13:48:43.102Z,90.20
2022-10-09T13:51:09.765Z,86.18
2022-10-09T13:53:36.337Z,84.49
2022-10-09T13:56:03.178Z,87.69
2022-10-09T13:58:29.800Z,84.90
2022-10-09T14:00:56.523Z,85.45
2022-10-09T14:03:23.030Z,86.18
2022-10-09T14:05:49.786Z,88.42
2022-10-09T14:08:16.310Z,88.68
2022-10-09T14:10:43.971Z,92.82
2022-10-09T14:13:11.057Z,98.87
2022-10-09T14:15:41.592Z,96.39
2022-10-09T14:18:09.010Z,97.86
2022-10-09T14:20:35.762Z,96.06
2022-10-09T14:23:02.500Z,95.93
2022-10-09T14:25:29.242Z,95.14
2022-10-09T14:27:55.882Z,95.98
2022-10-09T14:30:22.521Z,93.13
2022-10-09T14:32:49.368Z,92.46
2022-10-09T14:35:19.340Z,93.64
2022-10-09T14:37:47.857Z,93.89
2022-10-09T14:40:14.423Z,92.56
2022-10-09T14:42:41.081Z,94.67
2022-10-09T14:45:09.103Z,94.20
2022-10-09T14:47:35.716Z,94.87
2022-10-09T14:50:02.276Z,94.50
2022-10-09T14:52:28.826Z,97.03
2022-10-09T14:54:55.336Z,98.94
2022-10-09T14:57:22.071Z,99.30
2022-10-09T14:59:48.550Z,96.12
2022-10-09T15:02:16.281Z,94.81
2022-10-09T15:04:42.883Z,94.11
2022-10-09T15:07:09.435Z,95.79
2022-10-09T15:09:35.928Z,95.61
2022-10-09T15:12:02.400Z,96.80
2022-10-09T15:14:29.147Z,97.29
2022-10-09T15:16:55.686Z,100.00
2022-10-09T15:19:22.230Z,100.00
2022-10-09T15:21:48.769Z,99.65
2022-10-09T15:24:15.346Z,98.30
2022-10-09T15:26:42.040Z,100.00
2022-10-09T15:29:09.083Z,99.41
2022-10-09T15:31:38.602Z,99.27
2022-10-09T15:34:07.511Z,100.00
2022-10-09T15:36:36.883Z,98.71
2022-10-09T15:39:06.061Z,96.44
2022-10-09T15:41:35.497Z,96.72
2022-10-09T15:44:06.348Z,94.70
2022-10-09T15:46:33.041Z,96.44
2022-10-09T15:48:59.727Z,94.33
2022-10-09T15:51:26.626Z,92.92
2022-10-09T15:53:53.207Z,94.27
2022-10-09T15:56:23.132Z,97.73
2022-10-09T15:58:50.586Z,100.00
2022-10-09T16:01:18.341Z,100.00
2022-10-09T16:03:45.476Z,100.00
2022-10-09T16:06:14.638Z,100.00
2022-10-09T16:08:41.953Z,100.00
2022-10-09T16:11:11.589Z,100.00
2022-10-09T16:13:40.066Z,100.00
2022-10-09T16:16:09.519Z,100.00
2022-10-09T16:18:36.145Z,100.00
2022-10-09T16:21:14.347Z,100.00
2022-10-09T16:23:42.177Z,100.00
2022-10-09T16:26:09.096Z,100.00
2022-10-09T16:28:35.860Z,100.00
2022-10-09T16:31:02.983Z,100.00
2022-10-09T16:33:29.650Z,100.00
2022-10-09T16:36:07.228Z,100.00
2022-10-09T16:38:33.798Z,100.00
2022-10-09T16:41:02.535Z,100.00
2022-10-09T16:43:32.554Z,100.00
2022-10-09T16:46:11.417Z,100.00
2022-10-09T16:48:38.117Z,100.00
2022-10-09T16:51:09.526Z,100.00
2022-10-09T16:53:36.069Z,100.00
2022-10-09T16:56:16.263Z,100.00
2022-10-09T16:58:43.879Z,100.00
2022-10-09T17:01:11.229Z,100.00
2022-10-09T17:03:40.599Z,100.00
2022-10-09T17:06:16.148Z,100.00
2022-10-09T17:08:42.669Z,100.00
2022-10-09T17:11:11.851Z,100.00
2022-10-09T17:13:38.578Z,100.00
2022-10-09T17:16:15.710Z,100.00
2022-10-09T17:18:45.072Z,100.00
2022-10-09T17:21:16.510Z,100.00
2022-10-09T17:23:43.290Z,100.00
2022-10-09T17:26:15.466Z,100.00
2022-10-09T17:28:43.075Z,100.00
2022-10-09T17:31:14.188Z,100.00
2022-10-09T17:33:42.939Z,100.00
2022-10-09T17:36:11.111Z,100.00
2022-10-09T17:38:37.823Z,100.00
2022-10-09T17:41:05.586Z,100.00
2022-10-09T17:43:32.764Z,100.00
2022-10-09T17:46:00.588Z,100.00
2022-10-09T17:48:28.026Z,100.00
2022-10-09T17:50:57.917Z,100.00
2022-10-09T17:53:25.037Z,100.00
2022-10-09T17:55:54.143Z,100.00
2022-10-09T17:58:22.196Z,100.00
2022-10-09T18:00:49.759Z,100.00
2022-10-09T18:03:17.519Z,100.00
2022-10-09T18:05:46.324Z,100.00
2022-10-09T18:08:13.948Z,100.00
2022-10-09T18:10:40.562Z,100.00
2022-10-09T18:13:08.517Z,100.00
2022-10-09T18:15:39.885Z,100.00
2022-10-09T18:18:06.832Z,100.00
2022-10-09T18:20:34.770Z,100.00
2022-10-09T18:23:01.346Z,100.00
2022-10-09T18:25:27.879Z,100.00
2022-10-09T18:27:54.547Z,100.00
2022-10-09T18:30:21.144Z,100.00
2022-10-09T18:32:48.775Z,100.00
2022-10-09T18:35:15.598Z,100.00
2022-10-09T18:37:42.103Z,100.00
2022-10-09T18:40:08.888Z,100.00
2022-10-09T18:42:35.787Z,100.00
2022-10-09T18:45:03.196Z,100.00
2022-10-09T18:47:33.508Z,100.00
2022-10-09T18:50:02.751Z,100.00
2022-10-09T18:52:30.301Z,100.00
2022-10-09T18:54:58.711Z,100.00
2022-10-09T18:57:26.750Z,100.00
2022-10-09T18:59:55.527Z,100.00
2022-10-09T19:02:26.315Z,100.00
2022-10-09T19:04:54.733Z,100.00
2022-10-09T19:07:21.315Z,100.00
2022-10-09T19:09:56.320Z,100.00
2022-10-09T19:12:24.482Z,100.00
2022-10-09T19:14:51.358Z,100.00
2022-10-09T19:17:17.934Z,100.00
2022-10-09T19:19:44.522Z,100.00
2022-10-09T19:22:16.466Z,100.00
2022-10-09T19:24:44.827Z,100.00
2022-10-09T19:27:11.562Z,100.00
2022-10-09T19:29:38.315Z,100.00
2022-10-09T19:32:04.847Z,100.00
2022-10-09T19:34:31.775Z,100.00
2022-10-09T19:36:58.595Z,100.00
2022-10-09T19:39:25.233Z,100.00
2022-10-09T19:41:51.848Z,100.00
2022-10-09T19:44:18.673Z,100.00
2022-10-09T19:46:45.836Z,100.00
2022-10-09T19:49:12.372Z,100.00
2022-10-09T19:51:39.493Z,100.00
2022-10-09T19:54:07.628Z,100.00
2022-10-09T19:56:35.347Z,100.00
2022-10-09T19:59:05.197Z,100.00
2022-10-09T20:01:35.243Z,100.00
2022-10-09T20:04:07.559Z,100.00
2022-10-09T20:06:37.078Z,100.00
2022-10-09T20:09:04.918Z,100.00
2022-10-09T20:11:31.465Z,100.00
2022-10-09T20:13:58.796Z,100.00
2022-10-09T20:16:25.873Z,100.00
2022-10-09T20:18:54.579Z,100.00
2022-10-09T20:21:21.154Z,100.00
2022-10-09T20:23:47.670Z,100.00
2022-10-09T20:26:17.869Z,100.00
2022-10-09T20:28:44.942Z,100.00
2022-10-09T20:31:18.030Z,100.00
2022-10-09T20:33:45.914Z,100.00
2022-10-09T20:36:25.965Z,100.00
2022-10-09T20:38:56.066Z,100.00
2022-10-09T20:41:22.871Z,100.00
2022-10-09T20:43:53.726Z,100.00
2022-10-09T20:46:21.365Z,100.00
2022-10-09T20:48:48.296Z,100.00
2022-10-09T20:51:15.342Z,100.00
2022-10-09T20:53:42.039Z,100.00
2022-10-09T20:56:11.638Z,100.00
2022-10-09T20:58:39.177Z,100.00
2022-10-09T21:01:07.416Z,100.00
2022-10-09T21:03:35.621Z,100.00
2022-10-09T21:06:07.174Z,100.00
2022-10-09T21:08:33.881Z,100.00
2022-10-09T21:11:00.587Z,100.00
2022-10-09T21:13:27.131Z,100.00
2022-10-09T21:15:53.953Z,100.00
2022-10-09T21:18:20.479Z,100.00
2022-10-09T21:20:48.366Z,100.00
2022-10-09T21:23:17.852Z,100.00
2022-10-09T21:25:49.860Z,100.00
2022-10-09T21:28:18.455Z,100.00
2022-10-09T21:30:45.055Z,100.00
2022-10-09T21:33:12.139Z,100.00
2022-10-09T21:35:47.228Z,100.00
2022-10-09T21:38:17.484Z,100.00
2022-10-09T21:40:44.211Z,100.00
2022-10-09T21:43:10.831Z,100.00
2022-10-09T21:45:39.087Z,100.00
2022-10-09T21:48:06.658Z,100.00
2022-10-09T21:50:34.597Z,100.00
2022-10-09T21:53:01.084Z,100.00
2022-10-09T21:55:27.650Z,100.00
2022-10-09T21:57:54.502Z,100.00
2022-10-09T22:00:21.452Z,100.00
2022-10-09T22:02:48.220Z,100.00
2022-10-09T22:05:15.003Z,100.00
2022-10-09T22:07:41.654Z,100.00
2022-10-09T22:10:08.591Z,100.00
2022-10-09T22:12:35.188Z,100.00
2022-10-09T22:15:01.749Z,100.00
2022-10-09T22:17:28.261Z,100.00
2022-10-09T22:19:54.753Z,100.00
2022-10-09T22:22:23.719Z,100.00
2022-10-09T22:24:53.030Z,100.00
2022-10-09T22:27:19.946Z,100.00
2022-10-09T22:29:46.466Z,100.00
2022-10-09T22:32:12.924Z,100.00
2022-10-09T22:34:39.449Z,100.00
2022-10-09T22:37:05.913Z,100.00
2022-10-09T22:39:32.962Z,100.00
2022-10-09T22:41:59.427Z,100.00
2022-10-09T22:44:25.923Z,100.00
2022-10-09T22:46:52.389Z,100.00
2022-10-09T22:49:18.941Z,100.00
2022-10-09T22:51:45.876Z,100.00
2022-10-09T22:54:13.070Z,100.00
2022-10-09T22:56:42.250Z,100.00
2022-10-09T22:59:11.567Z,100.00
2022-10-09T23:01:40.645Z,100.00
2022-10-09T23:04:11.318Z,100.00
2022-10-09T23:06:38.282Z,100.00
2022-10-09T23:09:06.622Z,100.00
2022-10-09T23:11:33.305Z,100.00
2022-10-09T23:14:00.298Z,100.00
2022-10-09T23:16:28.544Z,100.00
2022-10-09T23:18:57.687Z,100.00
2022-10-09T23:21:24.510Z,100.00
2022-10-09T23:23:51.952Z,100.00
2022-10-09T23:26:24.176Z,100.00
2022-10-09T23:28:56.211Z,100.00
2022-10-09T23:31:23.478Z,100.00
2022-10-09T23:33:50.044Z,100.00
2022-10-09T23:36:20.311Z,100.00
2022-10-09T23:38:47.307Z,100.00
2022-10-09T23:41:17.962Z,100.00
2022-10-09T23:43:45.270Z,100.00
2022-10-09T23:46:20.394Z,100.00
2022-10-09T23:48:47.894Z,100.00
2022-10-09T23:51:14.930Z,100.00
2022-10-09T23:53:42.156Z,100.00
2022-10-09T23:56:38.066Z,100.00
2022-10-09T23:59:08.581Z,100.00
